Time;durP1;ratioP1;P1;durP2;ratioP2;P2;SDS_P1;SDS_P2;PMS_P1;PMS_P2;Temp;Humidity;BMP_temperature;BMP_pressure;BME280_temperature;BME280_humidity;BME280_pressure;Samples;Min_cycle;Max_cycle;Signal;HPM_P1;HPM_P2
2021/04/06 00:00:52;;;;;;;2.40;0.30;;;;;;;;;;5117939;27;20007;-53
2021/04/06 00:03:19;;;;;;;1.83;0.50;;;;;;;;;;5117206;27;20012;-52
2021/04/06 00:05:47;;;;;;;3.87;0.40;;;;;;;;;;5114888;27;20016;-53
2021/04/06 00:08:15;;;;;;;1.50;0.30;;;;;;;;;;5122144;27;20024;-52
2021/04/06 00:10:46;;;;;;;3.87;0.67;;;;;;;;;;5132296;27;20382;-53
2021/04/06 00:13:12;;;;;;;2.27;0.30;;;;;;;;;;5132144;27;20023;-53
2021/04/06 00:15:38;;;;;;;3.23;0.40;;;;;;;;;;5122337;27;20102;-53
2021/04/06 00:18:06;;;;;;;1.10;0.30;;;;;;;;;;5133175;27;20031;-55
2021/04/06 00:20:33;;;;;;;1.43;0.20;;;;;;;;;;5132934;27;20024;-53
2021/04/06 00:22:59;;;;;;;2.20;0.40;;;;;;;;;;5115436;27;20771;-54
2021/04/06 00:25:27;;;;;;;1.20;0.33;;;;;;;;;;5127792;27;20027;-53
2021/04/06 00:27:52;;;;;;;3.07;0.30;;;;;;;;;;5125593;27;20023;-54
2021/04/06 00:30:27;;;;;;;5.50;1.37;;;;;;;;;;5130880;27;20023;-54
2021/04/06 00:32:54;;;;;;;4.43;0.40;;;;;;;;;;5130885;27;20018;-55
2021/04/06 00:35:23;;;;;;;1.10;0.33;;;;;;;;;;5135241;27;20015;-54
2021/04/06 00:37:50;;;;;;;4.50;0.63;;;;;;;;;;5133003;27;20406;-54
2021/04/06 00:40:15;;;;;;;1.73;0.33;;;;;;;;;;5129350;27;20019;-55
2021/04/06 00:42:41;;;;;;;2.47;0.40;;;;;;;;;;5118988;27;20055;-51
2021/04/06 00:45:07;;;;;;;1.30;0.20;;;;;;;;;;5127623;27;20083;-54
2021/04/06 00:47:32;;;;;;;1.90;0.20;;;;;;;;;;5133724;27;20023;-52
2021/04/06 00:50:02;;;;;;;3.53;0.30;;;;;;;;;;5127345;27;20092;-55
2021/04/06 00:52:27;;;;;;;0.97;0.30;;;;;;;;;;5122842;27;20035;-56
2021/04/06 00:54:55;;;;;;;0.90;0.30;;;;;;;;;;5124353;27;20023;-55
2021/04/06 00:57:22;;;;;;;2.03;0.50;;;;;;;;;;5130840;27;20106;-55
2021/04/06 01:00:06;;;;;;;2.60;0.40;;;;;;;;;;5130353;27;20031;-51
2021/04/06 01:02:32;;;;;;;2.43;0.30;;;;;;;;;;5127712;27;20157;-55
2021/04/06 01:04:57;;;;;;;1.20;0.40;;;;;;;;;;5131929;27;20102;-55
2021/04/06 01:07:22;;;;;;;3.83;0.40;;;;;;;;;;5133133;27;20023;-55
2021/04/06 01:09:47;;;;;;;1.23;0.30;;;;;;;;;;5127967;27;20015;-50
2021/04/06 01:12:17;;;;;;;2.93;0.30;;;;;;;;;;5121100;27;20019;-51
2021/04/06 01:14:44;;;;;;;2.63;0.30;;;;;;;;;;5130989;27;20034;-54
2021/04/06 01:17:11;;;;;;;2.73;0.50;;;;;;;;;;5129458;27;20106;-52
2021/04/06 01:19:36;;;;;;;3.20;0.30;;;;;;;;;;5129236;27;20473;-54
2021/04/06 01:22:06;;;;;;;2.13;0.40;;;;;;;;;;5129988;27;20029;-54
2021/04/06 01:24:32;;;;;;;4.73;2.20;;;;;;;;;;5113481;27;20020;-56
2021/04/06 01:26:58;;;;;;;5.20;0.40;;;;;;;;;;5132373;27;20428;-53
2021/04/06 01:29:24;;;;;;;2.17;0.30;;;;;;;;;;5130470;27;20029;-54
2021/04/06 01:31:50;;;;;;;2.50;0.33;;;;;;;;;;5122741;27;20385;-54
2021/04/06 01:34:16;;;;;;;3.67;0.30;;;;;;;;;;5131705;27;20020;-54
2021/04/06 01:36:42;;;;;;;3.73;0.30;;;;;;;;;;5131012;27;20030;-54
2021/04/06 01:39:07;;;;;;;4.47;0.30;;;;;;;;;;5128816;27;20038;-53
2021/04/06 01:41:32;;;;;;;2.80;0.20;;;;;;;;;;5120376;27;20409;-54
2021/04/06 01:43:58;;;;;;;4.07;0.40;;;;;;;;;;5132081;27;20068;-53
2021/04/06 01:46:57;;;;;;;3.77;0.30;;;;;;;;;;5121616;27;20024;-54
2021/04/06 01:49:17;;;;;;;4.07;0.50;;;;;;;;;;5121476;27;20126;-52
2021/04/06 01:51:42;;;;;;;2.13;0.30;;;;;;;;;;5129357;27;20051;-54
2021/04/06 01:54:09;;;;;;;1.67;0.43;;;;;;;;;;5130724;27;20023;-53
2021/04/06 01:56:39;;;;;;;2.00;0.30;;;;;;;;;;5116133;27;20030;-50
2021/04/06 01:59:06;;;;;;;2.60;0.20;;;;;;;;;;5128089;27;20390;-53
2021/04/06 02:01:31;;;;;;;1.90;0.20;;;;;;;;;;5111229;27;20028;-53
2021/04/06 02:06:26;;;;;;;0.43;0.00;;;;;;;;;;5127507;27;20024;-53
2021/04/06 02:08:52;;;;;;;1.63;0.20;;;;;;;;;;5130042;27;20035;-52
2021/04/06 02:11:25;;;;;;;3.83;0.37;;;;;;;;;;5123322;27;20061;-51
2021/04/06 02:13:50;;;;;;;0.10;0.00;;;;;;;;;;5131039;27;20023;-53
2021/04/06 02:16:15;;;;;;;1.70;0.30;;;;;;;;;;5123431;27;20035;-52
2021/04/06 02:18:41;;;;;;;2.47;0.53;;;;;;;;;;5128309;28;20075;-53
2021/04/06 02:21:07;;;;;;;3.57;0.20;;;;;;;;;;5121580;28;20030;-55
2021/04/06 02:23:39;;;;;;;2.30;0.30;;;;;;;;;;5124540;28;20473;-51
2021/04/06 02:26:05;;;;;;;0.80;0.30;;;;;;;;;;5123539;27;20031;-51
2021/04/06 02:28:30;;;;;;;1.33;0.30;;;;;;;;;;5128416;28;20197;-52
2021/04/06 02:30:56;;;;;;;1.90;0.30;;;;;;;;;;5129116;28;20026;-53
2021/04/06 02:33:23;;;;;;;2.63;0.50;;;;;;;;;;5129511;27;20106;-52
2021/04/06 02:35:56;;;;;;;3.73;0.73;;;;;;;;;;5127254;27;20099;-54
2021/04/06 02:38:21;;;;;;;1.83;0.40;;;;;;;;;;5126948;28;20316;-54
2021/04/06 02:40:46;;;;;;;3.70;0.90;;;;;;;;;;5123508;27;20027;-52
2021/04/06 02:43:12;;;;;;;6.37;0.80;;;;;;;;;;5130155;28;20068;-53
2021/04/06 02:45:37;;;;;;;0.67;0.30;;;;;;;;;;5131250;28;20019;-54
2021/04/06 02:48:12;;;;;;;3.17;0.70;;;;;;;;;;5118195;27;20084;-54
2021/04/06 02:50:39;;;;;;;;;;;;;;;;;;5129933;28;20054;-54
2021/04/06 02:53:05;;;;;;;5.93;1.07;;;;;;;;;;5129230;27;20254;-53
2021/04/06 02:55:32;;;;;;;3.83;1.00;;;;;;;;;;5112261;27;20031;-52
2021/04/06 02:57:57;;;;;;;5.23;1.10;;;;;;;;;;5123490;28;20478;-54
2021/04/06 03:00:29;;;;;;;5.93;1.53;;;;;;;;;;5123622;28;20015;-54
2021/04/06 03:02:55;;;;;;;4.60;0.90;;;;;;;;;;5115023;28;20026;-53
2021/04/06 03:05:37;;;;;;;4.70;1.40;;;;;;;;;;5119186;28;20378;-52
2021/04/06 03:08:03;;;;;;;3.73;1.00;;;;;;;;;;5118112;27;20015;-53
2021/04/06 03:10:29;;;;;;;3.23;0.67;;;;;;;;;;5125548;28;20504;-54
2021/04/06 03:12:54;;;;;;;2.07;0.90;;;;;;;;;;5119857;28;20079;-50
2021/04/06 03:15:24;;;;;;;4.37;1.33;;;;;;;;;;5130310;27;20486;-55
2021/04/06 03:17:51;;;;;;;3.97;1.27;;;;;;;;;;5122940;28;20050;-51
2021/04/06 03:20:18;;;;;;;2.47;1.37;;;;;;;;;;5131107;27;20112;-55
2021/04/06 03:22:43;;;;;;;5.10;1.73;;;;;;;;;;5126232;27;20400;-51
2021/04/06 03:25:10;;;;;;;6.07;1.70;;;;;;;;;;5115753;28;20060;-54
2021/04/06 03:27:35;;;;;;;4.50;1.73;;;;;;;;;;5132249;27;20026;-55
2021/04/06 03:30:01;;;;;;;5.10;1.57;;;;;;;;;;5133884;27;20390;-51
2021/04/06 03:32:26;;;;;;;4.20;1.67;;;;;;;;;;5129954;27;20030;-52
2021/04/06 03:34:52;;;;;;;4.87;2.53;;;;;;;;;;5134043;27;20030;-54
2021/04/06 03:37:18;;;;;;;4.03;1.47;;;;;;;;;;5135168;27;20023;-53
2021/04/06 03:39:43;;;;;;;3.80;2.60;;;;;;;;;;5130431;27;20084;-53
2021/04/06 03:42:09;;;;;;;4.43;2.00;;;;;;;;;;5118372;27;20098;-52
2021/04/06 03:44:34;;;;;;;3.93;2.40;;;;;;;;;;5135489;27;20025;-53
2021/04/06 03:47:03;;;;;;;5.27;2.07;;;;;;;;;;5135434;27;20023;-51
2021/04/06 03:49:30;;;;;;;1.93;1.07;;;;;;;;;;5134100;27;20092;-52
2021/04/06 03:51:56;;;;;;;4.80;2.03;;;;;;;;;;5116356;27;20038;-52
2021/04/06 03:54:38;;;;;;;5.70;2.17;;;;;;;;;;5133263;27;20066;-52
2021/04/06 03:57:22;;;;;;;4.70;1.63;;;;;;;;;;5116537;27;20553;-51
2021/04/06 03:59:47;;;;;;;7.27;2.63;;;;;;;;;;5125291;27;20019;-53
2021/04/06 04:02:13;;;;;;;4.53;3.07;;;;;;;;;;5129457;27;20026;-54
2021/04/06 04:04:38;;;;;;;3.60;2.20;;;;;;;;;;5135141;27;20355;-51
2021/04/06 04:07:03;;;;;;;4.67;2.40;;;;;;;;;;5132390;27;20022;-54
2021/04/06 04:09:29;;;;;;;5.40;1.80;;;;;;;;;;5133439;27;20051;-54
2021/04/06 04:11:54;;;;;;;3.70;1.67;;;;;;;;;;5131647;27;20019;-52
2021/04/06 04:14:19;;;;;;;5.47;2.00;;;;;;;;;;5133703;27;20023;-51
2021/04/06 04:16:44;;;;;;;7.30;2.97;;;;;;;;;;5129017;27;20098;-54
2021/04/06 04:19:09;;;;;;;3.07;2.40;;;;;;;;;;5132945;27;20114;-52
2021/04/06 04:21:36;;;;;;;10.20;4.47;;;;;;;;;;5122377;27;20031;-53
2021/04/06 04:24:02;;;;;;;9.53;5.83;;;;;;;;;;5132496;27;20039;-56
2021/04/06 04:26:27;;;;;;;9.13;5.87;;;;;;;;;;5132378;27;20373;-54
2021/04/06 04:28:52;;;;;;;14.63;7.57;;;;;;;;;;5129769;27;20027;-55
2021/04/06 04:31:17;;;;;;;14.47;5.23;;;;;;;;;;5120896;27;20023;-51
2021/04/06 04:33:43;;;;;;;11.87;6.67;;;;;;;;;;5122463;27;20015;-51
2021/04/06 04:36:08;;;;;;;11.60;5.53;;;;;;;;;;5134089;27;20053;-51
2021/04/06 04:38:33;;;;;;;11.23;4.23;;;;;;;;;;5114193;27;20475;-54
2021/04/06 04:40:58;;;;;;;12.03;6.23;;;;;;;;;;5123484;27;20019;-55
2021/04/06 04:43:24;;;;;;;13.73;5.40;;;;;;;;;;5126427;27;20030;-54
2021/04/06 04:45:49;;;;;;;5.33;3.03;;;;;;;;;;5124281;27;20019;-53
2021/04/06 04:48:14;;;;;;;11.93;6.33;;;;;;;;;;5114239;27;20039;-55
2021/04/06 04:50:39;;;;;;;8.80;4.50;;;;;;;;;;5127943;27;20039;-50
2021/04/06 04:53:05;;;;;;;8.03;4.43;;;;;;;;;;5119779;27;20034;-54
2021/04/06 04:55:30;;;;;;;12.00;4.73;;;;;;;;;;5115773;27;20600;-54
2021/04/06 04:57:55;;;;;;;11.17;4.70;;;;;;;;;;5124199;27;20025;-55
2021/04/06 05:00:21;;;;;;;10.37;4.93;;;;;;;;;;5129159;27;20388;-53
2021/04/06 05:02:46;;;;;;;12.93;5.70;;;;;;;;;;5131230;27;20528;-56
2021/04/06 05:05:13;;;;;;;8.37;4.83;;;;;;;;;;5125813;27;20470;-56
2021/04/06 05:07:38;;;;;;;17.90;8.43;;;;;;;;;;5124897;27;20098;-52
2021/04/06 05:10:08;;;;;;;16.80;7.37;;;;;;;;;;5129549;27;20114;-54
2021/04/06 05:12:33;;;;;;;8.50;5.83;;;;;;;;;;5129492;27;20031;-52
2021/04/06 05:14:58;;;;;;;7.33;3.40;;;;;;;;;;5133486;27;20508;-55
2021/04/06 05:17:23;;;;;;;9.67;4.63;;;;;;;;;;5125146;27;20019;-53
2021/04/06 05:19:49;;;;;;;9.30;4.20;;;;;;;;;;5130575;27;20470;-53
2021/04/06 05:22:14;;;;;;;11.60;5.47;;;;;;;;;;5115852;27;20011;-54
2021/04/06 05:24:39;;;;;;;8.23;4.63;;;;;;;;;;5132033;27;20027;-54
2021/04/06 05:27:04;;;;;;;8.93;5.27;;;;;;;;;;5117666;27;20028;-55
2021/04/06 05:29:30;;;;;;;8.53;4.40;;;;;;;;;;5132247;27;20027;-54
2021/04/06 05:31:55;;;;;;;9.57;6.67;;;;;;;;;;5129633;27;20416;-53
2021/04/06 05:34:20;;;;;;;7.43;3.97;;;;;;;;;;5129804;27;20027;-55
2021/04/06 05:36:46;;;;;;;6.47;3.43;;;;;;;;;;5132925;27;20466;-55
2021/04/06 05:39:11;;;;;;;8.47;4.30;;;;;;;;;;5120004;27;20027;-54
2021/04/06 05:41:40;;;;;;;11.07;7.40;;;;;;;;;;5111575;27;20030;-57
2021/04/06 05:44:06;;;;;;;3.37;2.03;;;;;;;;;;5117980;27;20527;-52
2021/04/06 05:46:32;;;;;;;2.47;1.30;;;;;;;;;;5113280;28;20094;-52
2021/04/06 05:49:08;;;;;;;2.20;1.73;;;;;;;;;;5133104;27;20113;-55
2021/04/06 05:51:35;;;;;;;8.13;6.30;;;;;;;;;;5128044;27;20494;-50
2021/04/06 05:54:01;;;;;;;9.90;5.80;;;;;;;;;;5125629;27;20035;-54
2021/04/06 05:56:26;;;;;;;10.00;6.07;;;;;;;;;;5116764;27;20023;-53
2021/04/06 05:58:58;;;;;;;6.07;3.87;;;;;;;;;;5116937;27;20487;-54
2021/04/06 06:01:23;;;;;;;11.60;8.20;;;;;;;;;;5117148;27;20263;-54
2021/04/06 06:03:48;;;;;;;5.87;4.13;;;;;;;;;;5114144;27;20023;-52
2021/04/06 06:06:14;;;;;;;2.90;2.10;;;;;;;;;;5123397;27;20063;-51
2021/04/06 06:08:39;;;;;;;4.60;2.33;;;;;;;;;;5115112;27;20073;-50
2021/04/06 06:11:05;;;;;;;3.60;1.77;;;;;;;;;;5118397;27;20027;-53
2021/04/06 06:13:34;;;;;;;2.20;0.90;;;;;;;;;;5131016;27;20361;-54
2021/04/06 06:16:05;;;;;;;5.53;2.63;;;;;;;;;;5126015;27;20033;-52
2021/04/06 06:18:30;;;;;;;1.90;1.43;;;;;;;;;;5125744;27;20027;-55
2021/04/06 06:20:55;;;;;;;3.13;1.77;;;;;;;;;;5126431;27;20025;-54
2021/04/06 06:23:21;;;;;;;3.20;1.93;;;;;;;;;;5128884;28;20382;-54
2021/04/06 06:26:01;;;;;;;2.93;1.90;;;;;;;;;;5121025;27;20039;-52
2021/04/06 06:28:27;;;;;;;4.67;1.87;;;;;;;;;;5112590;28;20015;-54
2021/04/06 06:30:52;;;;;;;4.37;2.97;;;;;;;;;;5123545;28;20030;-53
2021/04/06 06:33:24;;;;;;;4.40;3.00;;;;;;;;;;5130333;28;20034;-52
2021/04/06 06:35:49;;;;;;;2.03;1.13;;;;;;;;;;5123898;27;20024;-53
2021/04/06 06:38:17;;;;;;;3.60;2.87;;;;;;;;;;5132612;27;20022;-52
2021/04/06 06:40:43;;;;;;;3.77;2.83;;;;;;;;;;5129993;28;20019;-52
2021/04/06 06:43:19;;;;;;;3.47;1.27;;;;;;;;;;5119823;27;20068;-53
2021/04/06 06:45:44;;;;;;;;;;;;;;;;;;5117727;27;20023;-50
2021/04/06 06:48:09;;;;;;;2.92;1.35;;;;;;;;;;5128391;28;19907;-54
2021/04/06 06:50:50;;;;;;;4.10;3.10;;;;;;;;;;5122471;27;20122;-55
2021/04/06 06:53:29;;;;;;;3.33;1.80;;;;;;;;;;5129912;27;20406;-54
2021/04/06 06:55:54;;;;;;;3.60;2.47;;;;;;;;;;5117678;27;20043;-52
2021/04/06 06:58:28;;;;;;;2.77;2.50;;;;;;;;;;5121100;27;20051;-53
2021/04/06 07:00:53;;;;;;;5.40;3.63;;;;;;;;;;5134733;27;20027;-53
2021/04/06 07:03:19;;;;;;;2.77;1.13;;;;;;;;;;5132879;27;20076;-56
2021/04/06 07:05:44;;;;;;;5.90;3.50;;;;;;;;;;5128314;27;20060;-52
2021/04/06 07:08:09;;;;;;;4.93;3.50;;;;;;;;;;5133022;27;20022;-53
2021/04/06 07:10:34;;;;;;;3.30;1.47;;;;;;;;;;5120991;27;20462;-52
2021/04/06 07:13:10;;;;;;;2.07;0.83;;;;;;;;;;5131516;27;20482;-54
2021/04/06 07:15:37;;;;;;;3.50;2.50;;;;;;;;;;5136325;27;20021;-54
2021/04/06 07:18:07;;;;;;;4.47;3.20;;;;;;;;;;5134256;27;20023;-51
2021/04/06 07:20:35;;;;;;;2.63;1.57;;;;;;;;;;5135782;27;20557;-50
2021/04/06 07:23:03;;;;;;;3.93;2.60;;;;;;;;;;5113987;27;20016;-54
2021/04/06 07:25:28;;;;;;;3.27;2.70;;;;;;;;;;5115493;28;20103;-53
2021/04/06 07:27:54;;;;;;;5.47;2.43;;;;;;;;;;5133158;27;20098;-53
2021/04/06 07:30:20;;;;;;;4.73;4.13;;;;;;;;;;5130597;27;20118;-53
2021/04/06 07:32:46;;;;;;;3.50;2.30;;;;;;;;;;5119417;27;20027;-52
2021/04/06 07:35:11;;;;;;;6.60;3.43;;;;;;;;;;5136431;27;20022;-52
2021/04/06 07:37:38;;;;;;;4.57;3.10;;;;;;;;;;5128851;27;20054;-53
2021/04/06 07:40:06;;;;;;;5.53;3.13;;;;;;;;;;5116251;27;20160;-54
2021/04/06 07:42:31;;;;;;;7.40;5.67;;;;;;;;;;5125529;27;20477;-56
2021/04/06 07:44:56;;;;;;;6.17;4.13;;;;;;;;;;5134251;27;20019;-55
2021/04/06 07:47:34;;;;;;;4.53;3.33;;;;;;;;;;5126673;27;20039;-53
2021/04/06 07:50:00;;;;;;;6.40;4.83;;;;;;;;;;5114763;28;20047;-54
2021/04/06 07:52:25;;;;;;;9.43;5.93;;;;;;;;;;5112308;28;20031;-52
2021/04/06 07:54:50;;;;;;;9.83;6.80;;;;;;;;;;5120061;27;20020;-51
2021/04/06 07:57:16;;;;;;;7.60;5.73;;;;;;;;;;5129925;27;20611;-55
2021/04/06 07:59:44;;;;;;;8.97;6.10;;;;;;;;;;5115362;27;20032;-51
2021/04/06 08:02:09;;;;;;;7.47;4.30;;;;;;;;;;5132853;27;20088;-53
2021/04/06 08:04:37;;;;;;;10.53;4.70;;;;;;;;;;5134208;27;20064;-54
2021/04/06 08:07:23;;;;;;;10.07;5.37;;;;;;;;;;5122242;27;20047;-50
2021/04/06 08:09:49;;;;;;;8.57;6.13;;;;;;;;;;5134501;27;20466;-55
2021/04/06 08:12:29;;;;;;;9.10;5.40;;;;;;;;;;5132003;27;20473;-49
2021/04/06 08:14:56;;;;;;;9.30;5.23;;;;;;;;;;5128925;27;20034;-54
2021/04/06 08:17:27;;;;;;;8.33;6.43;;;;;;;;;;5129616;27;20160;-52
2021/04/06 08:19:52;;;;;;;11.87;8.27;;;;;;;;;;5114314;28;20059;-50
2021/04/06 08:22:25;;;;;;;7.13;4.40;;;;;;;;;;5114588;27;20515;-53
2021/04/06 08:24:51;;;;;;;8.07;5.43;;;;;;;;;;5126863;27;20019;-51
2021/04/06 08:27:35;;;;;;;12.17;8.57;;;;;;;;;;5134846;27;20026;-56
2021/04/06 08:30:15;;;;;;;6.83;5.00;;;;;;;;;;5127357;27;20029;-54
2021/04/06 08:32:41;;;;;;;8.03;4.50;;;;;;;;;;5129867;27;20019;-56
2021/04/06 08:35:06;;;;;;;7.47;5.03;;;;;;;;;;5128445;27;20523;-49
2021/04/06 08:37:38;;;;;;;3.67;2.70;;;;;;;;;;5134982;27;20019;-55
2021/04/06 08:40:05;;;;;;;5.20;3.77;;;;;;;;;;5134217;27;20030;-52
2021/04/06 08:42:31;;;;;;;3.80;2.50;;;;;;;;;;5115071;27;20019;-53
2021/04/06 08:44:57;;;;;;;3.80;3.00;;;;;;;;;;5133141;27;20022;-51
2021/04/06 08:47:43;;;;;;;4.53;2.87;;;;;;;;;;5114247;28;20045;-55
2021/04/06 08:50:09;;;;;;;5.40;2.45;;;;;;;;;;5132853;27;20039;-52
2021/04/06 08:52:34;;;;;;;5.37;2.17;;;;;;;;;;5122640;27;20023;-55
2021/04/06 08:55:10;;;;;;;2.30;1.20;;;;;;;;;;5134197;27;20015;-54
2021/04/06 08:57:36;;;;;;;9.67;2.40;;;;;;;;;;5134676;27;20477;-49
2021/04/06 09:00:06;;;;;;;3.47;1.43;;;;;;;;;;5133958;27;20019;-50
2021/04/06 09:02:31;;;;;;;2.17;0.97;;;;;;;;;;5129761;27;20110;-52
2021/04/06 09:04:56;;;;;;;3.50;1.40;;;;;;;;;;5133638;27;20061;-50
2021/04/06 09:07:29;;;;;;;4.47;1.53;;;;;;;;;;5123461;27;20016;-54
2021/04/06 09:10:06;;;;;;;2.30;0.43;;;;;;;;;;5117630;27;20359;-52
2021/04/06 09:12:34;;;;;;;3.80;0.70;;;;;;;;;;5131352;27;20011;-53
2021/04/06 09:15:00;;;;;;;1.47;0.60;;;;;;;;;;5128945;27;20027;-52
2021/04/06 09:17:27;;;;;;;1.67;0.50;;;;;;;;;;5127471;27;20086;-52
2021/04/06 09:19:52;;;;;;;2.37;0.90;;;;;;;;;;5126729;27;20035;-51
2021/04/06 09:22:17;;;;;;;4.10;0.90;;;;;;;;;;5131040;27;20048;-53
2021/04/06 09:24:44;;;;;;;3.00;0.70;;;;;;;;;;5134001;27;20011;-54
2021/04/06 09:27:10;;;;;;;1.20;0.60;;;;;;;;;;5120375;27;20012;-52
2021/04/06 09:29:39;;;;;;;2.47;0.70;;;;;;;;;;5118284;27;20046;-55
2021/04/06 09:32:06;;;;;;;2.90;0.70;;;;;;;;;;5112335;27;20539;-54
2021/04/06 09:34:37;;;;;;;4.87;1.10;;;;;;;;;;5125066;27;20031;-53
2021/04/06 09:37:07;;;;;;;4.30;2.53;;;;;;;;;;5132007;27;20030;-53
2021/04/06 09:39:33;;;;;;;3.50;0.70;;;;;;;;;;5112839;28;20038;-53
2021/04/06 09:41:59;;;;;;;2.33;0.50;;;;;;;;;;5114727;27;20019;-55
2021/04/06 09:44:25;;;;;;;1.83;0.47;;;;;;;;;;5123615;27;20129;-53
2021/04/06 09:46:52;;;;;;;1.73;0.40;;;;;;;;;;5133189;27;20011;-51
2021/04/06 09:49:18;;;;;;;1.00;0.40;;;;;;;;;;5113050;27;20100;-55
2021/04/06 09:51:44;;;;;;;1.63;0.40;;;;;;;;;;5109200;27;20118;-51
2021/04/06 09:54:10;;;;;;;3.33;0.57;;;;;;;;;;5113058;28;20027;-52
2021/04/06 09:56:36;;;;;;;1.53;0.20;;;;;;;;;;5125577;27;20030;-53
2021/04/06 09:59:02;;;;;;;2.93;0.50;;;;;;;;;;5115027;27;20666;-52
2021/04/06 10:01:27;;;;;;;1.53;0.47;;;;;;;;;;5122152;27;20381;-53
2021/04/06 10:03:58;;;;;;;3.07;0.80;;;;;;;;;;5127128;27;20023;-52
2021/04/06 10:06:33;;;;;;;2.90;0.70;;;;;;;;;;5112743;28;20014;-52
2021/04/06 10:08:58;;;;;;;4.15;0.70;;;;;;;;;;5112606;28;20393;-53
2021/04/06 10:11:24;;;;;;;3.87;0.37;;;;;;;;;;5114863;27;20304;-56
2021/04/06 10:13:49;;;;;;;2.40;0.40;;;;;;;;;;5133315;27;20378;-56
2021/04/06 10:16:17;;;;;;;4.43;0.60;;;;;;;;;;5116737;27;20027;-54
2021/04/06 10:18:43;;;;;;;0.87;0.40;;;;;;;;;;5120806;27;20092;-52
2021/04/06 10:21:19;;;;;;;3.07;0.90;;;;;;;;;;5129494;27;20027;-51
2021/04/06 10:23:44;;;;;;;3.77;1.30;;;;;;;;;;5132977;27;20015;-53
2021/04/06 10:26:17;;;;;;;2.80;0.60;;;;;;;;;;5113145;27;20081;-53
2021/04/06 10:28:42;;;;;;;3.60;0.30;;;;;;;;;;5118531;28;20054;-54
2021/04/06 10:31:07;;;;;;;0.83;0.50;;;;;;;;;;5121549;27;20418;-56
2021/04/06 10:33:34;;;;;;;2.00;0.57;;;;;;;;;;5116845;27;20485;-55
2021/04/06 10:36:01;;;;;;;1.93;0.27;;;;;;;;;;5121132;27;20497;-55
2021/04/06 10:38:29;;;;;;;1.50;0.30;;;;;;;;;;5133788;27;20524;-54
2021/04/06 10:41:08;;;;;;;4.73;0.80;;;;;;;;;;5124194;27;20027;-52
2021/04/06 10:43:34;;;;;;;2.10;0.40;;;;;;;;;;5121884;27;20026;-54
2021/04/06 10:46:01;;;;;;;1.00;0.30;;;;;;;;;;5137056;27;20019;-50
2021/04/06 10:48:27;;;;;;;1.37;0.20;;;;;;;;;;5135279;27;20019;-50
2021/04/06 10:51:10;;;;;;;2.93;0.60;;;;;;;;;;5114087;28;20157;-54
2021/04/06 10:53:40;;;;;;;1.50;0.53;;;;;;;;;;5115060;28;20072;-57
2021/04/06 10:56:14;;;;;;;4.63;0.82;;;;;;;;;;5128927;27;20047;-55
2021/04/06 10:58:44;;;;;;;0.60;0.50;;;;;;;;;;5137164;27;20026;-49
2021/04/06 11:01:10;;;;;;;2.20;0.77;;;;;;;;;;5133834;27;20302;-50
2021/04/06 11:03:39;;;;;;;0.88;0.30;;;;;;;;;;5136386;27;20019;-55
2021/04/06 11:06:08;;;;;;;1.53;0.40;;;;;;;;;;5135670;27;20023;-52
2021/04/06 11:08:38;;;;;;;0.87;0.30;;;;;;;;;;5136551;27;20393;-53
2021/04/06 11:11:13;;;;;;;1.87;0.50;;;;;;;;;;5133524;27;20279;-55
2021/04/06 11:13:38;;;;;;;;;;;;;;;;;;5137269;27;20027;-50
2021/04/06 11:16:04;;;;;;;1.98;0.55;;;;;;;;;;5132604;27;19916;-55
2021/04/06 11:18:29;;;;;;;2.70;1.03;;;;;;;;;;5128180;27;20030;-49
2021/04/06 11:20:54;;;;;;;3.03;0.57;;;;;;;;;;5114271;28;20442;-50
2021/04/06 11:23:19;;;;;;;2.87;0.60;;;;;;;;;;5114524;28;20370;-52
2021/04/06 11:25:44;;;;;;;1.93;0.53;;;;;;;;;;5115490;28;20378;-48
2021/04/06 11:28:10;;;;;;;1.85;0.40;;;;;;;;;;5115962;28;20360;-53
2021/04/06 11:30:36;;;;;;;1.42;0.55;;;;;;;;;;5116788;27;20012;-52
2021/04/06 11:33:03;;;;;;;1.38;0.45;;;;;;;;;;5130186;27;20026;-50
2021/04/06 11:35:28;;;;;;;1.10;0.40;;;;;;;;;;5136439;27;20018;-51
2021/04/06 11:37:54;;;;;;;3.38;0.40;;;;;;;;;;5131754;27;20523;-54
2021/04/06 11:40:19;;;;;;;1.73;0.82;;;;;;;;;;5122095;27;20022;-53
2021/04/06 11:42:45;;;;;;;3.45;0.57;;;;;;;;;;5118443;27;20015;-53
2021/04/06 11:45:10;;;;;;;3.63;0.50;;;;;;;;;;5132166;27;20023;-53
2021/04/06 11:47:36;;;;;;;2.28;0.55;;;;;;;;;;5131663;27;20030;-53
2021/04/06 11:50:05;;;;;;;3.40;0.35;;;;;;;;;;5121737;27;20126;-51
2021/04/06 11:52:31;;;;;;;2.30;0.50;;;;;;;;;;5123713;27;20508;-50
2021/04/06 11:54:56;;;;;;;1.63;0.50;;;;;;;;;;5134747;27;20039;-49
2021/04/06 11:57:21;;;;;;;1.95;0.40;;;;;;;;;;5129903;27;20088;-53
2021/04/06 11:59:47;;;;;;;2.25;0.73;;;;;;;;;;5130709;27;20032;-53
2021/04/06 12:02:13;;;;;;;0.52;0.40;;;;;;;;;;5119321;27;20038;-53
2021/04/06 12:04:38;;;;;;;3.53;0.38;;;;;;;;;;5124706;27;20080;-52
2021/04/06 12:07:03;;;;;;;1.70;0.40;;;;;;;;;;5125341;27;20019;-51
2021/04/06 12:09:29;;;;;;;0.63;0.25;;;;;;;;;;5131650;27;20016;-54
2021/04/06 12:11:54;;;;;;;2.28;0.75;;;;;;;;;;5115399;27;20020;-54
2021/04/06 12:14:19;;;;;;;1.27;0.30;;;;;;;;;;5126105;27;20059;-55
2021/04/06 12:16:44;;;;;;;1.48;0.40;;;;;;;;;;5134854;27;20038;-53
2021/04/06 12:19:09;;;;;;;3.38;0.75;;;;;;;;;;5119767;27;20382;-52
2021/04/06 12:21:35;;;;;;;1.27;0.32;;;;;;;;;;5124059;27;20470;-53
2021/04/06 12:24:00;;;;;;;2.75;0.30;;;;;;;;;;5119879;27;20420;-55
2021/04/06 12:26:25;;;;;;;0.77;0.28;;;;;;;;;;5122156;27;20023;-54
2021/04/06 12:28:50;;;;;;;1.38;0.30;;;;;;;;;;5124742;27;20018;-56
2021/04/06 12:31:16;;;;;;;2.33;0.50;;;;;;;;;;5129603;27;20270;-54
2021/04/06 12:33:43;;;;;;;4.60;0.82;;;;;;;;;;5127973;27;20022;-51
2021/04/06 12:36:08;;;;;;;1.45;0.40;;;;;;;;;;5114365;28;20058;-54
2021/04/06 12:38:33;;;;;;;1.17;0.32;;;;;;;;;;5114506;28;20055;-48
2021/04/06 12:40:58;;;;;;;0.98;0.38;;;;;;;;;;5121895;27;20027;-53
2021/04/06 12:43:24;;;;;;;1.77;0.45;;;;;;;;;;5126314;27;20019;-55
2021/04/06 12:45:49;;;;;;;0.90;0.32;;;;;;;;;;5134081;27;20403;-56
2021/04/06 12:48:14;;;;;;;1.00;0.30;;;;;;;;;;5133468;27;20047;-55
2021/04/06 12:50:39;;;;;;;2.17;0.10;;;;;;;;;;5134244;27;20043;-54
2021/04/06 12:53:05;;;;;;;1.55;0.30;;;;;;;;;;5130568;27;20526;-53
2021/04/06 12:55:30;;;;;;;0.60;0.30;;;;;;;;;;5133447;27;20382;-56
2021/04/06 12:57:55;;;;;;;1.27;0.38;;;;;;;;;;5133563;27;20043;-51
2021/04/06 13:00:21;;;;;;;2.42;0.40;;;;;;;;;;5131781;27;20097;-55
2021/04/06 13:02:47;;;;;;;1.23;0.35;;;;;;;;;;5114030;27;20458;-56
2021/04/06 13:05:13;;;;;;;2.75;0.30;;;;;;;;;;5129091;27;20088;-57
2021/04/06 13:07:38;;;;;;;2.85;0.40;;;;;;;;;;5117706;27;20043;-56
2021/04/06 13:10:04;;;;;;;1.35;0.40;;;;;;;;;;5122552;27;20461;-54
2021/04/06 13:12:29;;;;;;;2.63;0.40;;;;;;;;;;5115916;27;20032;-55
2021/04/06 13:14:55;;;;;;;1.30;0.32;;;;;;;;;;5129587;27;20022;-53
2021/04/06 13:17:21;;;;;;;3.28;0.40;;;;;;;;;;5122757;27;20015;-54
2021/04/06 13:19:46;;;;;;;2.92;0.60;;;;;;;;;;5120020;27;20037;-52
2021/04/06 13:22:11;;;;;;;1.77;0.50;;;;;;;;;;5110902;27;20020;-55
2021/04/06 13:24:38;;;;;;;1.75;0.50;;;;;;;;;;5113134;28;20016;-56
2021/04/06 13:27:03;;;;;;;3.78;0.90;;;;;;;;;;5113079;28;20020;-55
2021/04/06 13:29:29;;;;;;;2.15;0.57;;;;;;;;;;5131519;27;20488;-54
2021/04/06 13:31:54;;;;;;;2.60;0.52;;;;;;;;;;5130491;27;20346;-49
2021/04/06 13:34:19;;;;;;;1.40;0.75;;;;;;;;;;5133120;27;20049;-55
2021/04/06 13:36:44;;;;;;;3.58;0.90;;;;;;;;;;5129483;27;20465;-54
2021/04/06 13:39:11;;;;;;;3.83;0.40;;;;;;;;;;5133878;27;20103;-54
2021/04/06 13:41:37;;;;;;;3.75;0.30;;;;;;;;;;5121009;27;20020;-56
2021/04/06 13:44:03;;;;;;;1.35;0.50;;;;;;;;;;5119332;27;20204;-54
2021/04/06 13:46:28;;;;;;;3.38;0.60;;;;;;;;;;5122755;27;20019;-53
2021/04/06 13:48:53;;;;;;;4.05;1.15;;;;;;;;;;5133370;27;20068;-55
2021/04/06 13:51:19;;;;;;;2.47;0.57;;;;;;;;;;5125631;27;20494;-54
2021/04/06 13:53:44;;;;;;;1.60;0.30;;;;;;;;;;5118208;27;20019;-53
2021/04/06 13:56:09;;;;;;;1.25;0.45;;;;;;;;;;5133384;27;20116;-52
2021/04/06 13:58:36;;;;;;;2.17;0.40;;;;;;;;;;5133413;27;20385;-55
2021/04/06 14:01:02;;;;;;;1.80;0.50;;;;;;;;;;5130019;27;20535;-50
2021/04/06 14:03:27;;;;;;;2.03;0.47;;;;;;;;;;5132535;27;20015;-54
2021/04/06 14:05:52;;;;;;;2.50;0.60;;;;;;;;;;5132395;27;20023;-53
2021/04/06 14:08:18;;;;;;;2.72;0.70;;;;;;;;;;5116464;27;20081;-54
2021/04/06 14:10:43;;;;;;;1.60;0.30;;;;;;;;;;5121588;27;20016;-53
2021/04/06 14:13:09;;;;;;;2.13;0.60;;;;;;;;;;5130572;27;20102;-52
2021/04/06 14:15:35;;;;;;;3.50;0.80;;;;;;;;;;5117153;27;20020;-55
2021/04/06 14:18:01;;;;;;;1.45;0.43;;;;;;;;;;5129520;27;20039;-53
2021/04/06 14:20:28;;;;;;;2.80;0.40;;;;;;;;;;5132735;27;20027;-54
2021/04/06 14:22:54;;;;;;;3.17;0.75;;;;;;;;;;5129927;27;20107;-54
2021/04/06 14:25:21;;;;;;;2.03;0.25;;;;;;;;;;5120976;27;20061;-55
2021/04/06 14:27:48;;;;;;;2.25;0.40;;;;;;;;;;5128755;28;20079;-50
2021/04/06 14:30:15;;;;;;;2.63;0.40;;;;;;;;;;5132388;27;20027;-53
2021/04/06 14:32:40;;;;;;;1.90;0.57;;;;;;;;;;5120497;27;20023;-53
2021/04/06 14:35:07;;;;;;;3.45;0.68;;;;;;;;;;5116782;27;20023;-54
2021/04/06 14:37:32;;;;;;;2.65;0.43;;;;;;;;;;5112458;28;20152;-52
2021/04/06 14:39:57;;;;;;;2.85;0.60;;;;;;;;;;5113274;28;20114;-51
2021/04/06 14:42:24;;;;;;;2.60;0.80;;;;;;;;;;5110289;28;20035;-54
2021/04/06 14:44:51;;;;;;;2.25;0.38;;;;;;;;;;5124607;28;20055;-53